NATIONAL KEY DEER NWR FL US current weather conditions

sailwx.info

Wind from 185 at 9 knots gusting 15

Air temperature 28.9° C
Dewpoint 24.4° C

Last reported at 2016-Dec-06 15:38 UTC.
Time now 2016-Dec-06 16:08 UTC

Location: N 24°43' W 081°23'.
View on Google Maps.

See reports from other nearby stations

  
Tides and Currents Weather Stations Pressure Air Temp Water Temp Dewpoint Dewpoint Depression Visibility Wind Speed Wind Dir Waves Ship Positions
date/time (UTC)wind fromknots sea level pressurealtimeterstation pressurevisibilityair tempwater tempwave heightnotes
2016-Dec-06 15:38 185 9 gusting 15 28.9
2016-Dec-06 14:38 183 8 gusting 14 27.8
2016-Dec-06 13:38 186 6 gusting 12 27.8
2016-Dec-06 12:38 178 6 gusting 9 25.6
2016-Dec-06 11:38 187 6 gusting 10 25.6
2016-Dec-06 10:38 183 5 gusting 9 25.6
2016-Dec-06 09:38 177 3 gusting 6 25.0
2016-Dec-06 08:38 168 3 gusting 6 25.0
2016-Dec-06 07:38 169 4 gusting 9 25.6
2016-Dec-06 06:38 173 6 gusting 13 26.1
2016-Dec-06 05:38 168 6 gusting 13 26.1
2016-Dec-06 04:38 167 6 gusting 10 25.6
2016-Dec-06 03:38 160 4 gusting 8 25.6
2016-Dec-06 02:38 152 4 gusting 9 25.6
2016-Dec-06 01:38 156 4 gusting 10 25.6
2016-Dec-06 00:38 140 3 gusting 8 25.6
2016-Dec-05 23:38 147 3 gusting 10 25.6
2016-Dec-05 22:38 152 3 gusting 12 26.1
2016-Dec-05 21:38 147 5 gusting 11 27.8
2016-Dec-05 20:38 142 6 gusting 12 28.3
2016-Dec-05 19:38 140 6 gusting 13 28.9
2016-Dec-05 18:38 130 6 gusting 15 28.9
2016-Dec-05 17:38 140 6 gusting 14 29.4
2016-Dec-05 16:38 144 6 gusting 14 30.0
2016-Dec-05 15:38 141 6 gusting 13 29.4
2016-Dec-05 14:38 139 6 gusting 16 28.9
2016-Dec-05 13:38 143 4 gusting 9 26.1
2016-Dec-05 12:38 133 3 gusting 8 25.6
2016-Dec-05 11:38 151 3 gusting 10 25.0
2016-Dec-05 10:38 148 4 gusting 10 25.0
2016-Dec-05 09:38 134 4 gusting 9 25.0
2016-Dec-05 08:38 131 3 gusting 8 25.0
2016-Dec-05 07:38 145 4 gusting 8 25.0
2016-Dec-05 06:38 139 4 gusting 9 25.0
2016-Dec-05 05:38 134 4 gusting 8 25.0
2016-Dec-05 04:38 133 3 gusting 9 25.0
2016-Dec-05 03:38 127 4 gusting 9 25.0
2016-Dec-05 02:38 128 4 gusting 10 25.6
2016-Dec-05 01:38 122 4 gusting 9 25.6
2016-Dec-05 00:38 119 4 gusting 10 25.6
2016-Dec-04 23:38 120 4 gusting 10 25.6
2016-Dec-04 22:38 101 4 gusting 13 25.6
2016-Dec-04 21:38 101 4 gusting 13 26.7
2016-Dec-04 20:38 089 6 gusting 14 26.7
2016-Dec-04 19:38 087 6 gusting 13 27.8
2016-Dec-04 18:38 089 7 gusting 14 28.9
2016-Dec-04 17:38 095 5 gusting 14 28.9
2016-Dec-04 16:38 091 6 gusting 13 28.9